Time;durP1;ratioP1;P1;durP2;ratioP2;P2;SDS_P1;SDS_P2;PMS_P1;PMS_P2;Temp;Humidity;BMP_temperature;BMP_pressure;BME280_temperature;BME280_humidity;BME280_pressure;Samples;Min_cycle;Max_cycle;Signal;HPM_P1;HPM_P2
2022/01/06 00:00:08;;;;;;;23.42;4.45;;;26.70;99.90;;;;;;5075651;28;20020;-74
2022/01/06 00:02:37;;;;;;;21.85;4.25;;;26.70;99.90;;;;;;5057431;28;20066;-74
2022/01/06 00:05:05;;;;;;;34.08;5.65;;;26.60;99.90;;;;;;5075062;28;20095;-74
2022/01/06 00:07:33;;;;;;;27.70;5.60;;;26.50;99.90;;;;;;5074792;28;20020;-74
2022/01/06 00:10:00;;;;;;;24.70;4.55;;;26.60;99.90;;;;;;5074573;28;20025;-74
2022/01/06 00:12:37;;;;;;;19.63;5.05;;;26.90;99.90;;;;;;5074622;28;20392;-74
2022/01/06 00:15:33;;;;;;;20.85;5.03;;;27.00;99.90;;;;;;5074534;28;20363;-75
2022/01/06 00:25:47;;;;;;;27.40;5.63;;;27.20;99.90;;;;;;5073918;28;20092;-75
2022/01/06 00:28:15;;;;;;;27.88;5.85;;;27.30;99.90;;;;;;5074278;28;20384;-74
2022/01/06 00:30:42;;;;;;;26.60;4.55;;;27.30;99.90;;;;;;5073556;28;20124;-76
2022/01/06 00:33:10;;;;;;;26.65;4.88;;;27.40;99.90;;;;;;5073825;28;20086;-75
2022/01/06 00:35:38;;;;;;;27.40;5.10;;;27.50;99.90;;;;;;5074091;28;20024;-77
2022/01/06 00:38:06;;;;;;;22.48;5.15;;;27.30;99.90;;;;;;5074230;28;20016;-76
2022/01/06 00:40:35;;;;;;;23.80;5.65;;;27.30;99.90;;;;;;5073977;28;20035;-75
2022/01/06 00:43:05;;;;;;;28.20;5.20;;;27.40;99.90;;;;;;5073773;28;20397;-76
2022/01/06 00:45:34;;;;;;;22.77;4.38;;;27.60;99.90;;;;;;5072947;28;20081;-75
2022/01/06 00:48:01;;;;;;;25.13;5.55;;;27.90;99.90;;;;;;5073629;28;20150;-76
2022/01/06 00:50:29;;;;;;;21.65;4.75;;;28.00;99.90;;;;;;5073506;28;20017;-75
2022/01/06 00:52:57;;;;;;;20.83;4.50;;;28.00;99.90;;;;;;5073722;28;20027;-76
2022/01/06 00:55:24;;;;;;;23.38;4.65;;;28.00;99.90;;;;;;5073667;28;20024;-76
2022/01/06 00:57:55;;;;;;;23.52;4.55;;;28.30;99.90;;;;;;5073707;28;20025;-76
2022/01/06 01:00:27;;;;;;;34.58;5.28;;;28.30;99.90;;;;;;5073654;28;20107;-74
2022/01/06 01:02:54;;;;;;;20.55;5.78;;;28.20;99.90;;;;;;5072346;28;20020;-75
2022/01/06 01:05:22;;;;;;;21.88;5.03;;;28.30;99.90;;;;;;5073696;28;20127;-76
2022/01/06 01:07:49;;;;;;;25.67;4.15;;;28.30;99.90;;;;;;5073538;28;20451;-74
2022/01/06 01:10:17;;;;;;;21.73;4.22;;;28.30;99.90;;;;;;5073291;28;20101;-73
2022/01/06 01:12:47;;;;;;;23.75;4.75;;;28.40;99.90;;;;;;5073291;28;20591;-74
2022/01/06 01:15:22;;;;;;;23.60;4.22;;;28.50;99.90;;;;;;5073313;28;20021;-74
2022/01/06 01:17:51;;;;;;;25.17;5.07;;;28.50;99.90;;;;;;5071795;28;20048;-73
2022/01/06 01:20:20;;;;;;;27.98;4.38;;;28.60;99.90;;;;;;5071936;28;20488;-74
2022/01/06 01:22:47;;;;;;;24.90;5.97;;;28.70;99.90;;;;;;5073014;28;20052;-75
2022/01/06 01:25:15;;;;;;;24.27;5.80;;;28.70;99.90;;;;;;5073351;28;20449;-74
2022/01/06 01:27:44;;;;;;;18.45;3.53;;;28.90;99.90;;;;;;5073242;28;20024;-74
2022/01/06 01:30:14;;;;;;;27.10;5.45;;;28.90;99.90;;;;;;5072692;28;20485;-74
2022/01/06 01:32:50;;;;;;;19.95;3.80;;;29.00;99.90;;;;;;5071611;28;20032;-74
2022/01/06 01:35:18;;;;;;;25.40;5.18;;;29.00;99.90;;;;;;5072574;28;20013;-74
2022/01/06 01:37:45;;;;;;;20.13;4.07;;;29.00;99.90;;;;;;5072467;28;20032;-72
2022/01/06 01:40:13;;;;;;;20.25;3.83;;;29.20;99.90;;;;;;5072520;28;20074;-75
2022/01/06 01:42:41;;;;;;;24.67;5.97;;;29.30;99.90;;;;;;5072715;28;20079;-74
2022/01/06 01:45:09;;;;;;;21.30;4.65;;;29.30;99.90;;;;;;5072660;28;20029;-74
2022/01/06 01:47:42;;;;;;;18.90;3.40;;;29.20;99.90;;;;;;5072575;28;20067;-74
2022/01/06 01:50:20;;;;;;;27.55;5.05;;;29.30;99.90;;;;;;5072649;28;20048;-74
2022/01/06 01:52:53;;;;;;;23.77;4.82;;;29.30;99.90;;;;;;5072634;28;20032;-77
2022/01/06 01:55:26;;;;;;;19.98;3.60;;;29.60;99.90;;;;;;5071710;28;20116;-76
2022/01/06 01:57:54;;;;;;;23.92;5.20;;;29.70;99.90;;;;;;5072797;28;20028;-75
2022/01/06 02:00:25;;;;;;;23.13;4.97;;;29.80;99.90;;;;;;5072726;28;20082;-76
2022/01/06 02:02:54;;;;;;;21.65;4.43;;;29.40;99.90;;;;;;5073001;28;20526;-75
2022/01/06 02:05:28;;;;;;;27.67;5.70;;;29.10;99.90;;;;;;5072648;28;20082;-75
2022/01/06 02:08:00;;;;;;;24.88;4.38;;;28.60;99.90;;;;;;5072612;28;20070;-74
2022/01/06 02:10:31;;;;;;;25.75;5.15;;;28.10;99.90;;;;;;5072827;28;20028;-73
2022/01/06 02:13:00;;;;;;;25.15;4.53;;;27.60;99.90;;;;;;5072853;28;20047;-74
2022/01/06 02:15:28;;;;;;;22.88;5.22;;;27.40;99.90;;;;;;5072358;28;20074;-75
2022/01/06 02:17:56;;;;;;;26.88;4.78;;;27.40;99.90;;;;;;5072143;28;20028;-76
2022/01/06 02:20:24;;;;;;;20.13;4.90;;;27.60;99.90;;;;;;5072287;28;20013;-74
2022/01/06 02:22:52;;;;;;;23.65;4.53;;;28.10;99.90;;;;;;5072336;28;20024;-74
2022/01/06 02:25:26;;;;;;;21.85;3.75;;;28.60;99.90;;;;;;5070734;28;20423;-76
2022/01/06 02:27:54;;;;;;;21.17;4.05;;;29.10;99.90;;;;;;5072403;28;20020;-75
2022/01/06 02:30:25;;;;;;;27.25;4.55;;;29.50;99.90;;;;;;5071890;28;20135;-76
2022/01/06 02:32:54;;;;;;;20.98;4.53;;;29.70;99.90;;;;;;5072156;28;20037;-75
2022/01/06 02:35:24;;;;;;;22.60;4.57;;;29.90;99.90;;;;;;5071882;28;20036;-76
2022/01/06 02:37:51;;;;;;;20.27;3.92;;;30.00;99.40;;;;;;5072095;28;20021;-74
2022/01/06 02:40:21;;;;;;;22.58;5.35;;;30.10;99.30;;;;;;5072046;28;20024;-76
2022/01/06 02:42:52;;;;;;;20.92;5.55;;;30.40;99.20;;;;;;5072074;28;20121;-74
2022/01/06 02:45:20;;;;;;;23.52;5.38;;;30.60;99.20;;;;;;5071760;28;20033;-74
2022/01/06 02:47:49;;;;;;;25.92;5.55;;;30.80;98.60;;;;;;5073996;28;20035;-75
2022/01/06 02:50:17;;;;;;;27.13;5.80;;;30.70;98.60;;;;;;5075916;28;20017;-75
2022/01/06 02:52:45;;;;;;;27.42;5.03;;;30.60;98.50;;;;;;5075952;28;20037;-76
2022/01/06 02:55:14;;;;;;;24.90;5.75;;;30.70;97.70;;;;;;5075939;28;20432;-73
2022/01/06 02:57:42;;;;;;;20.98;5.15;;;30.60;98.10;;;;;;5075883;28;20024;-75
2022/01/06 03:00:13;;;;;;;26.63;5.63;;;30.70;97.30;;;;;;5076068;28;20168;-75
2022/01/06 03:02:43;;;;;;;20.88;4.82;;;30.50;97.50;;;;;;5075921;28;20021;-76
2022/01/06 03:05:12;;;;;;;26.33;4.30;;;30.20;98.40;;;;;;5076062;28;20025;-77
2022/01/06 03:07:39;;;;;;;22.63;4.13;;;29.90;98.20;;;;;;5075947;28;20473;-76
2022/01/06 03:10:11;;;;;;;28.55;6.07;;;29.80;98.40;;;;;;5075697;28;20548;-76
2022/01/06 03:12:41;;;;;;;22.08;4.57;;;29.90;98.90;;;;;;5075871;28;20511;-75
2022/01/06 03:15:20;;;;;;;24.40;4.55;;;30.00;98.10;;;;;;5075572;28;20425;-75
2022/01/06 03:17:53;;;;;;;23.00;4.25;;;30.20;97.90;;;;;;5075542;28;20077;-76
2022/01/06 03:20:23;;;;;;;24.08;5.32;;;30.20;98.70;;;;;;5075450;28;20021;-76
2022/01/06 03:22:51;;;;;;;20.30;4.45;;;30.30;98.10;;;;;;5075658;28;20021;-75
2022/01/06 03:25:19;;;;;;;26.15;5.47;;;30.30;97.90;;;;;;5074036;28;20028;-76
2022/01/06 03:27:46;;;;;;;20.42;4.45;;;30.00;98.30;;;;;;5074084;28;20469;-76
2022/01/06 03:30:17;;;;;;;22.40;5.00;;;29.80;98.60;;;;;;5074964;28;20044;-75
2022/01/06 03:32:45;;;;;;;21.80;4.20;;;29.70;98.30;;;;;;5075305;28;20029;-76
2022/01/06 03:35:15;;;;;;;26.42;5.43;;;29.60;99.10;;;;;;5074313;28;20017;-76
2022/01/06 03:37:42;;;;;;;23.88;4.32;;;29.90;99.00;;;;;;5075462;28;20099;-75
2022/01/06 03:40:11;;;;;;;22.17;4.00;;;30.10;98.70;;;;;;5075054;28;20025;-75
2022/01/06 03:42:39;;;;;;;24.35;5.05;;;30.40;98.60;;;;;;5074590;28;20020;-76
2022/01/06 03:45:10;;;;;;;17.60;3.78;;;30.70;98.50;;;;;;5074637;28;20055;-77
2022/01/06 03:47:38;;;;;;;20.40;4.55;;;30.80;97.30;;;;;;5057918;28;20020;-75
2022/01/06 03:50:06;;;;;;;27.80;4.85;;;30.80;97.20;;;;;;5076024;28;20386;-77
2022/01/06 03:52:33;;;;;;;22.63;5.72;;;30.30;97.80;;;;;;5075793;28;20067;-76
2022/01/06 03:55:00;;;;;;;23.80;5.22;;;30.00;98.50;;;;;;5075172;28;20028;-75
2022/01/06 03:57:28;;;;;;;21.05;5.85;;;29.70;98.80;;;;;;5075069;28;20469;-74
2022/01/06 03:59:55;;;;;;;24.67;5.75;;;29.80;98.50;;;;;;5074096;28;20389;-77
2022/01/06 04:02:23;;;;;;;23.05;4.47;;;30.20;98.10;;;;;;5075029;28;20024;-75
2022/01/06 04:04:50;;;;;;;20.52;4.07;;;30.50;97.10;;;;;;5074120;28;20047;-75
2022/01/06 04:07:17;;;;;;;23.35;3.88;;;30.40;97.10;;;;;;5074691;28;20021;-75
2022/01/06 04:09:45;;;;;;;24.25;5.07;;;30.20;97.00;;;;;;5074189;28;20373;-76
2022/01/06 04:12:12;;;;;;;21.15;5.35;;;30.10;97.40;;;;;;5074454;28;20029;-75
2022/01/06 04:14:39;;;;;;;21.83;4.88;;;30.30;97.20;;;;;;5074093;28;20099;-75
2022/01/06 04:17:07;;;;;;;26.00;5.57;;;30.40;97.30;;;;;;5074268;28;20028;-75
2022/01/06 04:19:35;;;;;;;23.73;4.13;;;31.10;96.30;;;;;;5074468;28;20021;-76
2022/01/06 04:22:05;;;;;;;23.05;5.00;;;31.00;96.00;;;;;;5074424;28;20358;-74
2022/01/06 04:24:32;;;;;;;25.75;4.97;;;30.90;95.90;;;;;;5074693;28;20020;-76
2022/01/06 04:27:00;;;;;;;20.95;5.40;;;31.20;95.80;;;;;;5074687;28;20469;-76
2022/01/06 04:29:28;;;;;;;22.20;4.20;;;31.70;95.10;;;;;;5074397;28;20024;-76
2022/01/06 04:31:55;;;;;;;22.65;4.82;;;31.80;94.80;;;;;;5074088;28;20076;-75
2022/01/06 04:34:22;;;;;;;25.35;5.38;;;31.80;94.30;;;;;;5074312;28;20020;-74
2022/01/06 04:36:54;;;;;;;23.75;4.65;;;31.20;94.80;;;;;;5074547;28;20044;-75
2022/01/06 04:39:21;;;;;;;25.98;6.20;;;30.60;95.60;;;;;;5074206;28;20055;-76
2022/01/06 04:41:49;;;;;;;29.55;6.05;;;29.90;96.50;;;;;;5073944;28;20515;-74
2022/01/06 04:44:16;;;;;;;23.75;4.32;;;29.40;97.10;;;;;;5073797;28;20024;-76
2022/01/06 04:46:45;;;;;;;26.23;5.15;;;28.80;98.30;;;;;;5074457;28;20115;-75
2022/01/06 04:49:14;;;;;;;22.70;4.55;;;28.50;99.00;;;;;;5072707;28;20037;-76
2022/01/06 04:51:41;;;;;;;24.63;5.10;;;28.60;99.40;;;;;;5074407;28;20028;-76
2022/01/06 04:54:09;;;;;;;25.45;5.07;;;28.70;98.90;;;;;;5073842;28;20024;-78
2022/01/06 04:56:37;;;;;;;25.38;4.55;;;28.80;98.50;;;;;;5074735;28;20025;-75
2022/01/06 04:59:09;;;;;;;27.98;5.65;;;28.80;98.10;;;;;;5073188;28;20453;-75
2022/01/06 05:01:37;;;;;;;26.20;5.35;;;29.10;98.00;;;;;;5073878;28;20081;-76
2022/01/06 05:04:05;;;;;;;26.80;5.30;;;29.00;97.90;;;;;;5073146;28;20059;-76
2022/01/06 05:06:33;;;;;;;19.52;3.80;;;29.30;98.00;;;;;;5073522;28;20502;-74
2022/01/06 05:09:00;;;;;;;21.98;4.53;;;29.50;97.90;;;;;;5073750;28;20097;-75
2022/01/06 05:11:28;;;;;;;26.58;6.28;;;30.10;97.30;;;;;;5073319;28;20381;-75
2022/01/06 05:13:56;;;;;;;25.35;4.80;;;30.60;96.80;;;;;;5072073;28;20477;-75
2022/01/06 05:16:23;;;;;;;24.90;5.05;;;31.50;95.80;;;;;;5073803;28;20155;-77
2022/01/06 05:18:50;;;;;;;18.75;3.92;;;31.80;94.20;;;;;;5073087;28;20021;-75
2022/01/06 05:21:18;;;;;;;24.15;4.43;;;31.60;94.30;;;;;;5073314;28;20091;-76
2022/01/06 05:23:45;;;;;;;21.45;4.63;;;31.30;94.60;;;;;;5073468;28;20520;-75
2022/01/06 05:26:12;;;;;;;22.20;6.03;;;30.70;95.60;;;;;;5073333;28;20070;-76
2022/01/06 05:28:40;;;;;;;26.83;5.20;;;30.70;95.80;;;;;;5072835;28;20024;-75
2022/01/06 05:31:07;;;;;;;28.35;5.28;;;30.40;96.20;;;;;;5073053;28;20118;-74
2022/01/06 05:33:34;;;;;;;30.15;5.72;;;30.20;95.90;;;;;;5073128;28;20020;-74
2022/01/06 05:36:01;;;;;;;25.40;5.40;;;29.70;97.00;;;;;;5073070;28;20032;-74
2022/01/06 05:38:29;;;;;;;24.60;4.88;;;29.70;97.00;;;;;;5073206;28;20020;-75
2022/01/06 05:40:56;;;;;;;21.30;4.68;;;29.80;98.00;;;;;;5072721;28;20030;-75
2022/01/06 05:43:24;;;;;;;19.88;4.25;;;29.90;96.80;;;;;;5072937;28;20024;-74
2022/01/06 05:45:54;;;;;;;22.10;4.75;;;29.70;97.40;;;;;;5072729;28;20024;-73
2022/01/06 05:48:22;;;;;;;25.80;5.22;;;29.90;97.90;;;;;;5072588;28;20504;-76
2022/01/06 05:50:51;;;;;;;22.88;4.30;;;30.00;97.20;;;;;;5072842;28;20032;-74
2022/01/06 05:53:19;;;;;;;25.38;4.78;;;29.70;97.60;;;;;;5072800;28;20029;-74
2022/01/06 05:55:47;;;;;;;26.13;4.93;;;29.10;98.70;;;;;;5072689;28;20452;-75
2022/01/06 05:58:14;;;;;;;20.75;5.22;;;28.70;99.30;;;;;;5072891;28;20131;-76
2022/01/06 06:00:42;;;;;;;35.13;6.93;;;28.50;99.80;;;;;;5072468;28;20111;-75
2022/01/06 06:03:09;;;;;;;25.63;4.93;;;28.40;99.90;;;;;;5072485;28;20438;-73
2022/01/06 06:05:40;;;;;;;29.20;5.22;;;28.50;99.80;;;;;;5072241;28;20020;-74
2022/01/06 06:08:08;;;;;;;31.23;6.93;;;28.70;99.90;;;;;;5072031;28;20495;-74
2022/01/06 06:10:35;;;;;;;26.10;5.55;;;28.80;99.50;;;;;;5072032;28;20099;-74
2022/01/06 06:13:03;;;;;;;30.88;5.10;;;28.70;99.70;;;;;;5072307;28;20051;-75
2022/01/06 06:15:39;;;;;;;27.13;5.88;;;28.30;99.90;;;;;;5072738;28;20477;-73
2022/01/06 06:18:12;;;;;;;21.83;4.13;;;28.00;99.90;;;;;;5072553;28;20055;-73
2022/01/06 06:20:40;;;;;;;33.45;5.68;;;27.80;99.90;;;;;;5073354;28;20025;-74
2022/01/06 06:23:08;;;;;;;25.70;5.25;;;27.60;99.90;;;;;;5073083;28;20024;-74
2022/01/06 06:25:36;;;;;;;28.10;5.07;;;27.50;99.90;;;;;;5073333;28;20025;-74
2022/01/06 06:28:06;;;;;;;28.40;6.15;;;27.60;99.90;;;;;;5073236;28;20127;-74
2022/01/06 06:30:34;;;;;;;27.33;4.95;;;27.30;99.90;;;;;;5072496;28;20051;-74
2022/01/06 06:33:04;;;;;;;26.42;5.80;;;27.10;99.90;;;;;;5071186;28;20055;-75
2022/01/06 06:35:32;;;;;;;35.33;5.45;;;27.10;99.90;;;;;;5073413;28;20108;-75
2022/01/06 06:38:00;;;;;;;24.60;6.05;;;27.30;99.90;;;;;;5072969;28;20477;-75
2022/01/06 06:40:28;;;;;;;24.42;4.82;;;27.40;99.90;;;;;;5073530;28;20052;-76
2022/01/06 06:42:56;;;;;;;31.08;4.75;;;27.30;99.90;;;;;;5073160;28;20029;-75
2022/01/06 06:45:23;;;;;;;30.48;5.07;;;27.30;99.90;;;;;;5075242;28;20028;-75
2022/01/06 06:47:51;;;;;;;31.52;5.43;;;27.30;99.90;;;;;;5073370;28;20023;-77
2022/01/06 06:50:21;;;;;;;29.25;5.63;;;27.30;99.90;;;;;;5075096;28;20024;-76
2022/01/06 06:52:49;;;;;;;26.42;4.75;;;27.20;99.90;;;;;;5073381;28;20048;-75
2022/01/06 06:55:16;;;;;;;28.08;5.00;;;27.20;99.90;;;;;;5072838;28;20017;-75
2022/01/06 06:57:44;;;;;;;32.20;7.10;;;27.10;99.90;;;;;;5073371;28;20164;-75
2022/01/06 07:00:12;;;;;;;25.10;5.70;;;27.10;99.90;;;;;;5071923;28;20028;-75
2022/01/06 07:02:39;;;;;;;26.50;4.93;;;27.10;99.90;;;;;;5072557;28;20020;-75
2022/01/06 07:05:08;;;;;;;31.05;5.88;;;27.20;99.90;;;;;;5072817;28;20052;-75
2022/01/06 07:07:35;;;;;;;28.45;5.20;;;27.40;99.90;;;;;;5073458;28;20016;-76
2022/01/06 07:10:04;;;;;;;22.58;4.00;;;27.50;99.90;;;;;;5073489;28;20025;-77
2022/01/06 07:12:33;;;;;;;28.77;6.70;;;27.40;99.90;;;;;;5073284;28;20039;-76
2022/01/06 07:15:02;;;;;;;30.10;4.95;;;27.20;99.90;;;;;;5074484;28;20526;-75
2022/01/06 07:17:29;;;;;;;24.58;5.30;;;27.10;99.90;;;;;;5072448;28;20429;-74
2022/01/06 07:19:58;;;;;;;24.17;4.90;;;26.70;99.90;;;;;;5071486;28;20059;-76
2022/01/06 07:22:25;;;;;;;33.88;4.93;;;26.50;99.90;;;;;;5071073;28;20029;-76
2022/01/06 07:24:53;;;;;;;27.25;5.45;;;26.40;99.90;;;;;;5071221;28;20449;-75
2022/01/06 07:27:20;;;;;;;26.40;6.72;;;26.30;99.90;;;;;;5072185;28;20059;-75
2022/01/06 07:29:48;;;;;;;23.30;5.13;;;26.20;99.90;;;;;;5073215;28;20027;-75
2022/01/06 07:32:15;;;;;;;29.42;6.60;;;26.20;99.90;;;;;;5073341;28;20037;-75
2022/01/06 07:34:42;;;;;;;27.95;5.72;;;26.20;99.90;;;;;;5074237;28;20103;-75
2022/01/06 07:37:10;;;;;;;38.33;7.15;;;26.30;99.90;;;;;;5076948;28;20028;-75
2022/01/06 07:39:37;;;;;;;35.95;5.60;;;26.20;99.90;;;;;;5076347;28;20485;-76
2022/01/06 07:42:05;;;;;;;25.95;5.13;;;26.20;99.90;;;;;;5075844;28;20028;-77
2022/01/06 07:44:33;;;;;;;25.77;6.10;;;26.30;99.90;;;;;;5075939;28;20021;-77
2022/01/06 07:47:00;;;;;;;31.00;6.13;;;26.30;99.90;;;;;;5075766;28;20044;-78
2022/01/06 07:49:28;;;;;;;29.50;5.93;;;26.20;99.90;;;;;;5076807;28;20492;-75
2022/01/06 07:51:55;;;;;;;30.98;5.75;;;26.20;99.90;;;;;;5075634;28;20029;-76
2022/01/06 07:54:23;;;;;;;24.92;5.55;;;26.30;99.90;;;;;;5076602;28;20374;-76
2022/01/06 07:56:50;;;;;;;27.75;5.55;;;26.20;99.90;;;;;;5076080;28;20013;-75
2022/01/06 07:59:17;;;;;;;23.95;5.97;;;26.10;99.90;;;;;;5076057;28;20078;-76
2022/01/06 08:01:45;;;;;;;32.85;6.25;;;26.10;99.90;;;;;;5075601;28;20142;-75
2022/01/06 08:04:15;;;;;;;26.42;4.97;;;26.10;99.90;;;;;;5076760;28;20110;-75
2022/01/06 08:06:42;;;;;;;25.48;5.20;;;26.00;99.90;;;;;;5076017;28;20013;-75
2022/01/06 08:09:09;;;;;;;34.33;5.90;;;25.90;99.90;;;;;;5075449;28;20500;-76
2022/01/06 08:11:37;;;;;;;33.17;6.55;;;25.80;99.90;;;;;;5074897;28;20037;-75
2022/01/06 08:14:04;;;;;;;30.00;5.65;;;25.80;99.90;;;;;;5073919;28;20025;-78
2022/01/06 08:16:32;;;;;;;32.47;6.68;;;25.90;99.90;;;;;;5074080;28;20488;-77
2022/01/06 08:19:00;;;;;;;34.42;7.28;;;25.90;99.90;;;;;;5074243;28;20452;-75
2022/01/06 08:21:27;;;;;;;32.15;5.85;;;25.80;99.90;;;;;;5075715;28;20477;-75
2022/01/06 08:23:54;;;;;;;39.80;6.78;;;25.80;99.90;;;;;;5074902;28;20438;-78
2022/01/06 08:26:22;;;;;;;27.77;5.88;;;25.80;99.90;;;;;;5075258;28;20020;-76
2022/01/06 08:28:49;;;;;;;30.48;4.82;;;25.80;99.90;;;;;;5075912;28;20404;-77
2022/01/06 08:31:16;;;;;;;27.52;5.30;;;25.70;99.90;;;;;;5074776;28;20504;-76
2022/01/06 08:33:45;;;;;;;31.05;5.32;;;25.60;99.90;;;;;;5075900;28;20082;-76
2022/01/06 08:36:13;;;;;;;29.70;5.65;;;25.60;99.90;;;;;;5074699;28;20103;-76
2022/01/06 08:38:40;;;;;;;31.55;4.95;;;25.50;99.90;;;;;;5074928;28;20500;-77
2022/01/06 08:41:08;;;;;;;28.27;5.85;;;25.50;99.90;;;;;;5074111;28;20430;-74
2022/01/06 08:43:36;;;;;;;35.80;6.20;;;25.50;99.90;;;;;;5074546;28;20084;-74
2022/01/06 08:46:03;;;;;;;29.10;5.32;;;25.50;99.90;;;;;;5073088;28;20031;-77
2022/01/06 08:48:31;;;;;;;39.97;6.80;;;25.40;99.90;;;;;;5073919;28;20477;-76
2022/01/06 08:50:58;;;;;;;29.90;6.15;;;25.40;99.90;;;;;;5074306;28;20067;-77
2022/01/06 08:53:26;;;;;;;27.75;5.82;;;25.40;99.90;;;;;;5075150;28;20025;-76
2022/01/06 08:55:53;;;;;;;25.23;4.90;;;25.30;99.90;;;;;;5073024;28;20020;-76
2022/01/06 08:58:21;;;;;;;26.58;5.00;;;25.20;99.90;;;;;;5074009;28;20537;-76
2022/01/06 09:00:48;;;;;;;30.17;6.22;;;25.20;99.90;;;;;;5073924;28;20089;-75
2022/01/06 09:03:16;;;;;;;24.65;4.95;;;25.20;99.90;;;;;;5073994;28;20059;-75
2022/01/06 09:05:43;;;;;;;25.10;4.38;;;25.20;99.90;;;;;;5072520;28;20032;-74
2022/01/06 09:08:10;;;;;;;31.27;5.63;;;25.20;99.90;;;;;;5073724;28;20442;-75
2022/01/06 09:10:38;;;;;;;29.65;5.13;;;25.20;99.90;;;;;;5073809;28;20028;-75
2022/01/06 09:13:06;;;;;;;26.10;4.35;;;25.10;99.90;;;;;;5073465;28;20054;-77
2022/01/06 09:15:33;;;;;;;33.70;5.85;;;25.10;99.90;;;;;;5073556;28;20143;-75
2022/01/06 09:18:00;;;;;;;27.33;6.85;;;25.00;99.90;;;;;;5073464;28;20059;-74
2022/01/06 09:20:32;;;;;;;26.17;4.75;;;25.00;99.90;;;;;;5071948;28;20059;-75
2022/01/06 09:22:59;;;;;;;30.77;5.47;;;24.90;99.90;;;;;;5073229;28;20020;-75
2022/01/06 09:25:26;;;;;;;35.08;5.57;;;24.90;99.90;;;;;;5073240;28;20074;-75
2022/01/06 09:27:54;;;;;;;33.35;4.95;;;24.80;99.90;;;;;;5073324;28;20017;-76
2022/01/06 09:30:25;;;;;;;33.63;5.78;;;24.80;99.90;;;;;;5071789;28;20190;-75
2022/01/06 09:32:53;;;;;;;27.88;5.00;;;24.80;99.90;;;;;;5073104;28;20108;-76
2022/01/06 09:35:22;;;;;;;34.00;7.45;;;24.80;99.90;;;;;;5072928;28;20021;-75
2022/01/06 09:37:49;;;;;;;34.38;5.22;;;24.80;99.90;;;;;;5072797;28;20095;-76
2022/01/06 09:40:17;;;;;;;32.92;6.05;;;24.80;99.90;;;;;;5072835;28;20052;-75
2022/01/06 09:42:44;;;;;;;37.17;6.40;;;24.60;99.90;;;;;;5072332;28;20016;-75
2022/01/06 09:45:12;;;;;;;32.92;5.30;;;24.50;99.90;;;;;;5072873;28;20473;-74
2022/01/06 09:47:41;;;;;;;45.50;6.05;;;24.20;99.90;;;;;;5072690;28;20024;-75
2022/01/06 09:50:11;;;;;;;36.83;7.53;;;24.20;99.90;;;;;;5071993;28;20029;-75
2022/01/06 09:52:38;;;;;;;40.30;7.38;;;24.10;99.90;;;;;;5072868;28;20036;-76
2022/01/06 09:55:07;;;;;;;34.78;5.50;;;24.10;99.90;;;;;;5072919;28;20020;-74
2022/01/06 09:57:35;;;;;;;33.40;7.32;;;24.00;99.90;;;;;;5072031;28;20435;-75
2022/01/06 10:00:05;;;;;;;27.20;4.60;;;24.00;99.90;;;;;;5072774;28;20505;-77
2022/01/06 10:02:37;;;;;;;27.80;4.80;;;24.00;99.90;;;;;;5072125;28;20052;-75
2022/01/06 10:05:05;;;;;;;30.83;6.40;;;24.00;99.90;;;;;;5072165;28;20108;-77
2022/01/06 10:07:53;;;;;;;36.60;5.43;;;24.00;99.90;;;;;;5071092;28;20020;-77
2022/01/06 10:10:25;;;;;;;32.15;5.45;;;24.00;99.90;;;;;;5072391;28;20027;-76
2022/01/06 10:12:57;;;;;;;30.35;4.75;;;24.10;99.90;;;;;;5072071;28;20036;-77
2022/01/06 10:15:28;;;;;;;30.50;7.75;;;24.10;99.90;;;;;;5072146;28;20537;-77
2022/01/06 10:17:55;;;;;;;26.88;4.93;;;24.10;99.90;;;;;;5072508;28;20029;-77
2022/01/06 10:20:27;;;;;;;32.63;4.85;;;24.20;99.90;;;;;;5072341;28;20024;-77
2022/01/06 10:22:57;;;;;;;26.70;6.07;;;24.20;99.90;;;;;;5072295;28;20060;-78
2022/01/06 10:25:31;;;;;;;31.05;5.07;;;24.20;99.90;;;;;;5072311;28;20077;-78
2022/01/06 10:27:59;;;;;;;26.38;4.95;;;24.20;99.90;;;;;;5072013;28;20104;-77
2022/01/06 10:30:27;;;;;;;28.90;5.63;;;24.20;99.90;;;;;;5072059;28;20041;-79
2022/01/06 10:32:59;;;;;;;33.95;6.30;;;24.20;99.90;;;;;;5071888;28;20032;-77
2022/01/06 10:35:25;;;;;;;;;;;24.20;99.90;;;;;;5072618;28;20020;-79
2022/01/06 10:37:53;;;;;;;33.90;5.75;;;24.20;99.90;;;;;;5072333;28;19911;-76
2022/01/06 10:40:22;;;;;;;34.45;5.13;;;24.20;99.90;;;;;;5072030;28;20095;-78
2022/01/06 10:42:54;;;;;;;32.15;5.53;;;24.30;99.90;;;;;;5072131;28;20488;-76
2022/01/06 10:45:25;;;;;;;33.70;6.65;;;24.20;99.90;;;;;;5071875;28;20377;-75
2022/01/06 10:47:57;;;;;;;31.33;5.10;;;24.20;99.90;;;;;;5072272;28;20056;-78
2022/01/06 10:50:26;;;;;;;;;;;24.20;99.90;;;;;;5071266;28;20048;-78
2022/01/06 10:52:57;;;;;;;30.35;4.45;;;24.30;99.90;;;;;;5072017;28;19947;-77
2022/01/06 10:55:33;;;;;;;33.27;5.70;;;24.30;99.90;;;;;;5072377;28;20052;-76
2022/01/06 10:58:02;;;;;;;34.20;5.95;;;24.20;99.90;;;;;;5072141;28;20020;-78
2022/01/06 11:00:33;;;;;;;33.15;5.70;;;24.20;99.90;;;;;;5070868;28;20120;-76
2022/01/06 11:03:08;;;;;;;37.95;5.13;;;24.20;99.90;;;;;;5072203;28;20034;-75
2022/01/06 11:05:37;;;;;;;34.08;4.55;;;24.20;99.90;;;;;;5071913;28;20017;-78
2022/01/06 11:08:06;;;;;;;31.92;5.53;;;24.30;99.90;;;;;;5071166;28;20481;-79
2022/01/06 11:10:46;;;;;;;33.45;5.82;;;24.30;99.90;;;;;;5074693;28;20032;-78
2022/01/06 11:13:16;;;;;;;27.83;5.05;;;24.30;99.90;;;;;;5075865;28;20040;-77
2022/01/06 11:15:43;;;;;;;30.15;5.88;;;24.30;99.90;;;;;;5076033;28;20104;-77
2022/01/06 11:18:17;;;;;;;36.33;5.28;;;24.30;99.90;;;;;;5074512;28;20028;-76
2022/01/06 11:20:44;;;;;;;32.22;5.43;;;24.30;99.90;;;;;;5075256;28;20017;-76
2022/01/06 11:23:21;;;;;;;25.33;5.25;;;24.20;99.90;;;;;;5075780;28;20491;-76
2022/01/06 11:26:02;;;;;;;28.15;5.80;;;24.20;99.90;;;;;;5074406;28;20154;-76
2022/01/06 11:28:33;;;;;;;25.58;5.35;;;24.30;99.90;;;;;;5074276;28;20052;-79
2022/01/06 11:31:15;;;;;;;28.00;5.28;;;24.30;99.90;;;;;;5075124;28;20076;-74
2022/01/06 11:33:43;;;;;;;34.10;5.55;;;24.30;99.90;;;;;;5075115;28;20528;-76
2022/01/06 11:36:35;;;;;;;32.00;6.20;;;24.30;99.90;;;;;;5075395;28;20033;-76
2022/01/06 11:39:07;;;;;;;33.80;5.78;;;24.40;99.90;;;;;;5074030;28;20402;-75
2022/01/06 11:41:41;;;;;;;35.33;5.53;;;24.30;99.90;;;;;;5074781;28;20029;-75
2022/01/06 11:44:20;;;;;;;30.65;6.13;;;24.30;99.90;;;;;;5074906;28;20024;-76
2022/01/06 11:47:09;;;;;;;30.30;5.32;;;24.20;99.90;;;;;;5075198;28;20492;-76
2022/01/06 11:49:39;;;;;;;30.77;4.68;;;24.20;99.90;;;;;;5074867;28;20123;-75
2022/01/06 11:52:12;;;;;;;22.50;5.07;;;24.20;99.90;;;;;;5075117;28;20033;-77
2022/01/06 11:54:55;;;;;;;34.42;5.88;;;24.20;99.90;;;;;;5075181;28;20048;-76
2022/01/06 11:57:30;;;;;;;27.83;5.65;;;24.20;99.90;;;;;;5075109;28;20066;-76
2022/01/06 12:00:00;;;;;;;34.65;5.80;;;24.20;99.90;;;;;;5073534;28;20024;-77
2022/01/06 12:02:28;;;;;;;30.98;5.43;;;24.10;99.90;;;;;;5074878;28;20024;-76
2022/01/06 12:04:58;;;;;;;32.85;6.90;;;24.10;99.90;;;;;;5074831;28;20096;-77
2022/01/06 12:07:25;;;;;;;29.58;6.03;;;24.10;99.90;;;;;;5074758;28;20036;-76
2022/01/06 12:10:07;;;;;;;26.60;4.97;;;24.20;99.90;;;;;;5074738;28;20012;-76
2022/01/06 12:12:40;;;;;;;35.10;5.53;;;24.20;99.90;;;;;;5073026;28;20068;-78
2022/01/06 12:15:13;;;;;;;28.13;6.00;;;24.20;99.90;;;;;;5074469;28;20261;-77
2022/01/06 12:17:53;;;;;;;31.67;5.93;;;24.20;99.90;;;;;;5074493;28;20475;-76
2022/01/06 12:20:26;;;;;;;29.33;6.35;;;24.20;99.90;;;;;;5073699;28;20051;-74
2022/01/06 12:22:54;;;;;;;29.70;6.25;;;24.20;99.90;;;;;;5074225;28;20238;-75
2022/01/06 12:25:26;;;;;;;37.55;6.10;;;24.20;99.90;;;;;;5074365;28;20024;-73
2022/01/06 12:27:56;;;;;;;36.35;6.55;;;24.10;99.90;;;;;;5074641;28;20028;-75
2022/01/06 12:30:29;;;;;;;29.85;5.28;;;24.10;99.90;;;;;;5074276;28;20036;-76
2022/01/06 12:33:07;;;;;;;31.75;8.05;;;24.10;99.90;;;;;;5074475;28;20037;-76
2022/01/06 12:35:41;;;;;;;24.70;4.95;;;24.00;99.90;;;;;;5074227;28;20059;-74
2022/01/06 12:38:10;;;;;;;39.25;6.78;;;24.10;99.90;;;;;;5074374;28;20036;-77
2022/01/06 12:40:43;;;;;;;39.72;7.57;;;24.00;99.90;;;;;;5072922;28;20021;-76
2022/01/06 12:43:32;;;;;;;30.92;5.57;;;24.00;99.90;;;;;;5074403;28;20021;-76
2022/01/06 12:46:06;;;;;;;34.83;6.20;;;24.00;99.90;;;;;;5072649;28;20103;-76
2022/01/06 12:48:40;;;;;;;37.83;6.20;;;24.00;99.90;;;;;;5073772;28;20013;-75
2022/01/06 12:51:10;;;;;;;34.40;5.32;;;24.10;99.90;;;;;;5074015;28;20025;-75
2022/01/06 12:53:40;;;;;;;38.67;6.50;;;24.10;99.90;;;;;;5074354;28;20021;-75
2022/01/06 12:56:10;;;;;;;29.33;4.82;;;24.10;99.90;;;;;;5074234;28;20017;-75